createdAt,value
2019-02-05T00:01:45.948Z,22.87
2019-02-05T00:04:12.573Z,22.95
2019-02-05T00:06:39.261Z,23.18
2019-02-05T00:09:05.842Z,20.82
2019-02-05T00:11:32.671Z,20.95
2019-02-05T00:13:59.252Z,19.82
2019-02-05T00:16:25.829Z,22.10
2019-02-05T00:18:52.461Z,20.43
2019-02-05T00:21:19.117Z,22.10
2019-02-05T00:23:45.701Z,19.75
2019-02-05T00:26:12.539Z,19.05
2019-02-05T00:28:39.124Z,20.08
2019-02-05T00:31:05.778Z,21.12
2019-02-05T00:33:32.705Z,20.12
2019-02-05T00:35:59.291Z,25.40
2019-02-05T00:38:26.460Z,20.10
2019-02-05T00:40:53.096Z,19.90
2019-02-05T00:43:19.684Z,21.30
2019-02-05T00:45:46.423Z,23.12
2019-02-05T00:48:13.045Z,20.68
2019-02-05T00:50:41.631Z,23.15
2019-02-05T00:53:07.931Z,20.02
2019-02-05T00:55:34.558Z,21.42
2019-02-05T00:58:01.536Z,21.68
2019-02-05T01:00:28.146Z,17.67
2019-02-05T01:02:54.761Z,20.20
2019-02-05T01:05:21.336Z,20.35
2019-02-05T01:07:47.927Z,23.45
2019-02-05T01:10:14.736Z,19.70
2019-02-05T01:12:41.327Z,24.23
2019-02-05T01:15:08.713Z,20.30
2019-02-05T01:17:35.343Z,21.20
2019-02-05T01:20:01.922Z,18.42
2019-02-05T01:22:28.608Z,20.10
2019-02-05T01:24:55.250Z,17.02
2019-02-05T01:27:21.892Z,20.20
2019-02-05T01:29:48.471Z,19.42
2019-02-05T01:32:15.421Z,24.65
2019-02-05T01:34:42.283Z,19.98
2019-02-05T01:37:09.066Z,22.37
2019-02-05T01:39:35.694Z,16.93
2019-02-05T01:42:02.277Z,17.90
2019-02-05T01:44:28.935Z,15.53
2019-02-05T01:46:55.558Z,22.45
2019-02-05T01:49:22.192Z,17.65
2019-02-05T01:51:48.806Z,18.15
2019-02-05T01:54:15.778Z,19.12
2019-02-05T01:56:42.579Z,20.50
2019-02-05T01:59:09.190Z,18.07
2019-02-05T02:01:35.865Z,19.65
2019-02-05T02:04:02.448Z,17.98
2019-02-05T02:06:29.034Z,20.80
2019-02-05T02:08:55.660Z,19.20
2019-02-05T02:11:22.824Z,22.20
2019-02-05T02:13:49.408Z,19.32
2019-02-05T02:16:16.149Z,18.40
2019-02-05T02:18:42.742Z,19.27
2019-02-05T02:21:09.316Z,18.67
2019-02-05T02:23:35.949Z,20.23
2019-02-05T02:26:02.596Z,20.30
2019-02-05T02:28:29.223Z,17.98
2019-02-05T02:30:56.326Z,22.25
2019-02-05T02:33:22.916Z,18.92
2019-02-05T02:35:49.491Z,19.50
2019-02-05T02:38:16.192Z,25.10
2019-02-05T02:40:42.778Z,16.40
2019-02-05T02:43:09.354Z,18.20
2019-02-05T02:45:36.069Z,20.30
2019-02-05T02:48:02.913Z,17.87
2019-02-05T02:50:29.769Z,18.57
2019-02-05T02:52:56.407Z,17.95
2019-02-05T02:55:22.983Z,24.02
2019-02-05T02:57:49.562Z,17.65
2019-02-05T03:00:16.260Z,19.10
2019-02-05T03:02:42.894Z,17.67
2019-02-05T03:05:09.556Z,18.90
2019-02-05T03:07:36.460Z,17.25
2019-02-05T03:10:03.331Z,18.67
2019-02-05T03:12:29.908Z,18.67
2019-02-05T03:14:56.527Z,21.48
2019-02-05T03:17:23.115Z,19.42
2019-02-05T03:19:49.738Z,16.50
2019-02-05T03:22:16.609Z,18.65
2019-02-05T03:24:43.275Z,21.60
2019-02-05T03:27:17.238Z,19.40
2019-02-05T03:29:38.402Z,19.50
2019-02-05T03:32:04.985Z,14.83
2019-02-05T03:34:31.737Z,23.77
2019-02-05T03:36:58.576Z,18.90
2019-02-05T03:39:25.163Z,17.17
2019-02-05T03:41:51.807Z,22.70
2019-02-05T03:44:18.466Z,18.20
2019-02-05T03:46:45.132Z,16.30
2019-02-05T03:49:11.712Z,19.82
2019-02-05T03:51:38.516Z,16.05
2019-02-05T03:54:05.102Z,17.50
2019-02-05T03:56:32.400Z,16.02
2019-02-05T03:58:59.043Z,20.60
2019-02-05T04:01:25.619Z,19.25
2019-02-05T04:03:52.202Z,17.57
2019-02-05T04:06:18.829Z,16.95
2019-02-05T04:08:45.410Z,19.67
2019-02-05T04:11:11.992Z,17.10
2019-02-05T04:13:38.802Z,21.55
2019-02-05T04:16:05.382Z,16.27
2019-02-05T04:18:32.143Z,19.95
2019-02-05T04:20:58.772Z,21.25
2019-02-05T04:23:25.357Z,14.70
2019-02-05T04:25:51.941Z,20.37
2019-02-05T04:28:18.573Z,15.85
2019-02-05T04:30:45.242Z,15.60
2019-02-05T04:33:12.297Z,16.45
2019-02-05T04:35:39.128Z,16.12
2019-02-05T04:38:05.728Z,17.95
2019-02-05T04:40:32.370Z,16.85
2019-02-05T04:42:59.037Z,16.93
2019-02-05T04:45:33.677Z,15.60
2019-02-05T04:47:54.229Z,21.27
2019-02-05T04:50:21.739Z,19.30
2019-02-05T04:52:48.908Z,16.87
2019-02-05T04:55:15.504Z,16.73
2019-02-05T04:57:42.230Z,15.90
2019-02-05T05:00:08.822Z,17.87
2019-02-05T05:02:35.408Z,16.35
2019-02-05T05:05:02.044Z,14.80
2019-02-05T05:07:28.665Z,20.37
2019-02-05T05:09:55.246Z,15.78
2019-02-05T05:12:23.615Z,14.40
2019-02-05T05:14:50.194Z,14.65
2019-02-05T05:17:16.808Z,15.28
2019-02-05T05:19:43.466Z,16.97
2019-02-05T05:22:10.052Z,17.12
2019-02-05T05:24:36.704Z,18.98
2019-02-05T05:27:03.448Z,17.25
2019-02-05T05:29:33.085Z,17.35
2019-02-05T05:31:58.325Z,16.67
2019-02-05T05:34:24.949Z,13.93
2019-02-05T05:36:51.713Z,16.15
2019-02-05T05:39:18.320Z,15.58
2019-02-05T05:41:45.117Z,16.00
2019-02-05T05:44:11.688Z,18.85
2019-02-05T05:46:38.455Z,14.55
2019-02-05T05:49:05.130Z,19.65
2019-02-05T05:51:31.709Z,21.97
2019-02-05T05:53:58.481Z,15.30
2019-02-05T05:56:25.149Z,14.05
2019-02-05T05:58:51.742Z,13.60
2019-02-05T06:01:18.319Z,14.50
2019-02-05T06:03:44.947Z,15.18
2019-02-05T06:06:11.542Z,15.15
2019-02-05T06:08:38.195Z,20.50
2019-02-05T06:11:04.833Z,18.95
2019-02-05T06:13:31.419Z,17.45
2019-02-05T06:15:57.990Z,22.52
2019-02-05T06:18:24.685Z,14.43
2019-02-05T06:20:51.256Z,14.53
2019-02-05T06:23:17.831Z,14.73
2019-02-05T06:25:44.454Z,13.80
2019-02-05T06:28:11.172Z,19.42
2019-02-05T06:30:37.805Z,14.58
2019-02-05T06:33:04.524Z,17.60
2019-02-05T06:35:31.693Z,23.10
2019-02-05T06:37:58.482Z,13.10
2019-02-05T06:40:25.384Z,16.12
2019-02-05T06:42:51.965Z,12.65
2019-02-05T06:45:18.541Z,11.78
2019-02-05T06:47:45.397Z,15.50
2019-02-05T06:50:11.963Z,18.05
2019-02-05T06:52:38.540Z,13.78
2019-02-05T06:55:05.189Z,17.67
2019-02-05T06:57:32.050Z,15.23
2019-02-05T06:59:58.627Z,12.33
2019-02-05T07:02:25.276Z,15.05
2019-02-05T07:04:51.854Z,15.15
2019-02-05T07:07:18.450Z,14.60
2019-02-05T07:09:45.324Z,15.05
2019-02-05T07:12:13.015Z,14.35
2019-02-05T07:14:39.679Z,14.70
2019-02-05T07:17:06.967Z,13.78
2019-02-05T07:19:33.659Z,12.70
2019-02-05T07:22:00.257Z,17.25
2019-02-05T07:24:27.307Z,14.03
2019-02-05T07:26:53.941Z,15.20
2019-02-05T07:29:21.896Z,12.93
2019-02-05T07:31:48.533Z,18.17
2019-02-05T07:34:15.294Z,14.10
2019-02-05T07:36:42.248Z,13.78
2019-02-05T07:39:09.356Z,15.23
2019-02-05T07:41:37.968Z,13.88
2019-02-05T07:44:04.322Z,13.58
2019-02-05T07:46:31.063Z,16.25
2019-02-05T07:48:57.642Z,15.13
2019-02-05T07:51:24.267Z,14.25
2019-02-05T07:53:51.254Z,13.48
2019-02-05T07:56:17.901Z,15.75
2019-02-05T07:58:44.916Z,14.38
2019-02-05T08:01:12.045Z,14.18
2019-02-05T08:03:38.680Z,11.85
2019-02-05T08:06:05.261Z,14.00
2019-02-05T08:08:31.968Z,15.50
2019-02-05T08:10:58.555Z,14.35
2019-02-05T08:13:25.198Z,17.60
2019-02-05T08:15:51.933Z,16.02
2019-02-05T08:18:18.900Z,14.63
2019-02-05T08:20:45.543Z,13.03
2019-02-05T08:23:12.177Z,16.55
2019-02-05T08:25:39.158Z,14.58
2019-02-05T08:28:05.807Z,16.60
2019-02-05T08:30:32.498Z,12.47
2019-02-05T08:32:59.109Z,14.00
2019-02-05T08:35:25.695Z,14.40
2019-02-05T08:37:52.433Z,13.25
2019-02-05T08:40:19.101Z,13.55
2019-02-05T08:42:45.677Z,18.42
2019-02-05T08:45:14.246Z,12.90
2019-02-05T08:47:40.729Z,13.88
2019-02-05T08:50:07.696Z,12.93
2019-02-05T08:52:34.340Z,13.03
2019-02-05T08:55:01.017Z,13.08
2019-02-05T08:57:27.706Z,12.30
2019-02-05T08:59:54.438Z,13.05
2019-02-05T09:02:21.016Z,16.45
2019-02-05T09:04:47.649Z,13.30
2019-02-05T09:07:14.349Z,17.77
2019-02-05T09:09:41.519Z,15.48
2019-02-05T09:12:08.099Z,12.37
2019-02-05T09:14:34.732Z,12.28
2019-02-05T09:17:01.376Z,12.28
2019-02-05T09:19:27.949Z,11.45
2019-02-05T09:21:55.153Z,12.47
2019-02-05T09:24:21.806Z,11.75
2019-02-05T09:26:48.460Z,12.68
2019-02-05T09:29:15.403Z,13.13
2019-02-05T09:31:42.360Z,12.28
2019-02-05T09:34:08.936Z,12.23
2019-02-05T09:36:35.557Z,11.97
2019-02-05T09:39:02.243Z,13.93
2019-02-05T09:41:28.898Z,12.00
2019-02-05T09:43:55.552Z,12.13
2019-02-05T09:46:22.169Z,13.72
2019-02-05T09:48:48.901Z,11.97
2019-02-05T09:51:15.524Z,14.20
2019-02-05T09:53:42.391Z,12.15
2019-02-05T09:56:09.043Z,11.40
2019-02-05T09:58:35.745Z,12.15
2019-02-05T10:01:02.313Z,11.18
2019-02-05T10:03:28.899Z,11.90
2019-02-05T10:05:55.693Z,10.63
2019-02-05T10:08:22.463Z,12.68
2019-02-05T10:10:49.123Z,11.12
2019-02-05T10:13:15.831Z,9.98
2019-02-05T10:15:42.688Z,12.85
2019-02-05T10:18:09.263Z,11.00
2019-02-05T10:20:36.012Z,10.95
2019-02-05T10:23:02.587Z,13.93
2019-02-05T10:25:29.487Z,10.75
2019-02-05T10:27:56.233Z,10.72
2019-02-05T10:30:22.883Z,12.37
2019-02-05T10:32:49.556Z,11.25
2019-02-05T10:35:17.447Z,9.10
2019-02-05T10:37:44.060Z,11.20
2019-02-05T10:40:10.714Z,12.18
2019-02-05T10:42:37.347Z,10.20
2019-02-05T10:45:03.932Z,9.88
2019-02-05T10:47:30.512Z,9.53
2019-02-05T10:49:58.440Z,11.20
2019-02-05T10:52:25.011Z,10.43
2019-02-05T10:54:51.594Z,10.20
2019-02-05T10:57:18.703Z,8.00
2019-02-05T10:59:45.286Z,9.65
2019-02-05T11:02:11.943Z,7.97
2019-02-05T11:04:38.588Z,10.53
2019-02-05T11:07:05.186Z,9.75
2019-02-05T11:09:31.922Z,10.95
2019-02-05T11:11:58.580Z,9.33
2019-02-05T11:14:25.236Z,9.93
2019-02-05T11:16:51.891Z,10.53
2019-02-05T11:19:19.108Z,9.85
2019-02-05T11:21:45.775Z,8.88
2019-02-05T11:24:12.450Z,10.75
2019-02-05T11:26:39.071Z,9.10
2019-02-05T11:29:05.753Z,10.08
2019-02-05T11:31:32.589Z,11.05
2019-02-05T11:33:59.332Z,9.33
2019-02-05T11:36:25.905Z,9.48
2019-02-05T11:38:52.485Z,9.90
2019-02-05T11:41:19.482Z,9.58
2019-02-05T11:43:46.138Z,10.58
2019-02-05T11:46:12.721Z,9.18
2019-02-05T11:48:39.430Z,9.85
2019-02-05T11:51:06.140Z,10.55
2019-02-05T11:53:32.875Z,8.75
2019-02-05T11:55:59.618Z,7.95
2019-02-05T11:58:26.192Z,9.28
2019-02-05T12:00:53.175Z,8.53
2019-02-05T12:03:20.085Z,9.88
2019-02-05T12:05:46.747Z,7.92
2019-02-05T12:08:13.433Z,9.65
2019-02-05T12:10:40.090Z,10.60
2019-02-05T12:13:06.716Z,8.95
2019-02-05T12:15:33.374Z,8.53
2019-02-05T12:18:00.174Z,8.38
2019-02-05T12:20:26.991Z,9.45
2019-02-05T12:22:53.636Z,8.83
2019-02-05T12:25:20.541Z,10.95
2019-02-05T12:27:47.125Z,11.18
2019-02-05T12:30:13.711Z,9.20
2019-02-05T12:32:40.338Z,8.95
2019-02-05T12:35:06.953Z,10.80
2019-02-05T12:37:33.619Z,9.43
2019-02-05T12:40:00.610Z,9.75
2019-02-05T12:42:27.246Z,9.85
2019-02-05T12:44:54.205Z,9.45
2019-02-05T12:47:20.834Z,9.63
2019-02-05T12:49:47.476Z,8.18
2019-02-05T12:52:14.111Z,9.30
2019-02-05T12:54:41.857Z,12.78
2019-02-05T12:57:08.450Z,10.03
2019-02-05T12:59:35.062Z,8.30
2019-02-05T13:02:01.706Z,10.65
2019-02-05T13:04:28.298Z,8.80
2019-02-05T13:06:54.874Z,8.45
2019-02-05T13:09:21.518Z,10.50
2019-02-05T13:11:48.097Z,8.10
2019-02-05T13:14:14.687Z,9.73
2019-02-05T13:16:41.300Z,10.45
2019-02-05T13:19:07.877Z,8.93
2019-02-05T13:21:34.459Z,8.85
2019-02-05T13:24:01.877Z,8.23
2019-02-05T13:26:28.480Z,7.72
2019-02-05T13:28:55.069Z,7.45
2019-02-05T13:31:21.803Z,7.85
2019-02-05T13:33:48.383Z,8.30
2019-02-05T13:36:14.971Z,10.15
2019-02-05T13:38:41.815Z,8.55
2019-02-05T13:41:08.591Z,8.50
2019-02-05T13:43:35.453Z,8.70
2019-02-05T13:46:02.227Z,7.87
2019-02-05T13:48:28.879Z,7.15
2019-02-05T13:50:55.577Z,7.60
2019-02-05T13:53:22.201Z,7.80
2019-02-05T13:55:48.774Z,9.50
2019-02-05T13:58:15.351Z,9.03
2019-02-05T14:00:41.996Z,9.38
2019-02-05T14:03:08.949Z,8.88
2019-02-05T14:05:35.533Z,8.73
2019-02-05T14:08:02.242Z,8.23
2019-02-05T14:10:28.824Z,8.95
2019-02-05T14:12:55.502Z,9.43
2019-02-05T14:15:22.111Z,6.97
2019-02-05T14:17:49.760Z,8.35
2019-02-05T14:20:16.344Z,10.15
2019-02-05T14:22:43.410Z,9.18
2019-02-05T14:25:10.074Z,9.78
2019-02-05T14:27:36.647Z,8.70
2019-02-05T14:30:03.326Z,7.35
2019-02-05T14:32:30.794Z,9.45
2019-02-05T14:34:57.567Z,7.22
2019-02-05T14:37:24.255Z,8.95
2019-02-05T14:39:50.830Z,9.00
2019-02-05T14:42:17.751Z,9.95
2019-02-05T14:44:44.383Z,7.85
2019-02-05T14:47:10.959Z,8.85
2019-02-05T14:49:38.334Z,8.30
2019-02-05T14:52:05.059Z,7.00
2019-02-05T14:54:31.688Z,7.95
2019-02-05T14:56:58.254Z,8.98
2019-02-05T14:59:26.286Z,10.20
2019-02-05T15:01:52.871Z,8.23
2019-02-05T15:04:19.442Z,9.25
2019-02-05T15:06:46.065Z,7.90
2019-02-05T15:09:12.644Z,7.65
2019-02-05T15:11:39.251Z,8.83
2019-02-05T15:14:05.898Z,8.93
2019-02-05T15:16:32.482Z,8.80
2019-02-05T15:18:59.239Z,9.58
2019-02-05T15:21:25.856Z,8.48
2019-02-05T15:23:52.456Z,9.50
2019-02-05T15:26:19.023Z,9.15
2019-02-05T15:28:45.717Z,8.23
2019-02-05T15:31:12.450Z,9.25
2019-02-05T15:33:39.036Z,9.65
2019-02-05T15:36:05.718Z,10.93
2019-02-05T15:38:32.351Z,10.60
2019-02-05T15:40:58.941Z,8.05
2019-02-05T15:43:25.564Z,10.10
2019-02-05T15:45:52.148Z,11.55
2019-02-05T15:48:18.720Z,11.53
2019-02-05T15:50:45.366Z,12.58
2019-02-05T15:53:12.202Z,10.63
2019-02-05T15:55:39.154Z,11.95
2019-02-05T15:58:05.793Z,11.25
2019-02-05T16:00:34.633Z,11.03
2019-02-05T16:03:00.693Z,9.75
2019-02-05T16:05:27.321Z,11.03
2019-02-05T16:07:53.901Z,10.98
2019-02-05T16:10:20.482Z,9.38
2019-02-05T16:12:47.276Z,9.48
2019-02-05T16:15:14.142Z,11.53
2019-02-05T16:17:40.734Z,12.55
2019-02-05T16:20:07.409Z,11.48
2019-02-05T16:22:34.001Z,12.37
2019-02-05T16:25:00.584Z,15.38
2019-02-05T16:27:27.366Z,21.30
2019-02-05T16:29:53.968Z,26.75
2019-02-05T16:32:20.540Z,31.52
2019-02-05T16:34:47.641Z,32.10
2019-02-05T16:37:14.220Z,35.40
2019-02-05T16:39:40.799Z,31.68
2019-02-05T16:42:07.447Z,35.70
2019-02-05T16:44:34.026Z,39.00
2019-02-05T16:47:00.638Z,46.10
2019-02-05T16:49:27.298Z,41.37
2019-02-05T16:51:53.975Z,41.18
2019-02-05T16:54:20.938Z,47.08
2019-02-05T16:56:47.608Z,42.08
2019-02-05T16:59:14.259Z,47.17
2019-02-05T17:01:40.832Z,45.95
2019-02-05T17:04:07.457Z,46.25
2019-02-05T17:06:34.039Z,47.33
2019-02-05T17:09:00.614Z,42.48
2019-02-05T17:11:27.243Z,45.43
2019-02-05T17:13:54.401Z,48.90
2019-02-05T17:16:21.004Z,49.15
2019-02-05T17:18:47.716Z,43.17
2019-02-05T17:21:14.288Z,46.40
2019-02-05T17:23:41.097Z,46.88
2019-02-05T17:26:07.732Z,48.25
2019-02-05T17:28:34.303Z,42.95
2019-02-05T17:31:01.006Z,48.73
2019-02-05T17:33:28.085Z,50.28
2019-02-05T17:35:55.005Z,42.55
2019-02-05T17:38:21.594Z,43.38
2019-02-05T17:40:48.274Z,47.53
2019-02-05T17:43:14.918Z,54.03
2019-02-05T17:45:41.488Z,47.48
2019-02-05T17:48:08.129Z,51.92
2019-02-05T17:50:34.828Z,50.95
2019-02-05T17:53:01.780Z,48.92
2019-02-05T17:55:28.421Z,44.13
2019-02-05T17:57:55.008Z,47.55
2019-02-05T18:00:21.582Z,49.27
2019-02-05T18:02:51.523Z,47.15
2019-02-05T18:05:16.570Z,50.78
2019-02-05T18:07:44.264Z,48.48
2019-02-05T18:10:11.310Z,49.98
2019-02-05T18:12:38.026Z,46.13
2019-02-05T18:15:04.610Z,46.60
2019-02-05T18:17:31.231Z,45.48
2019-02-05T18:19:58.813Z,43.38
2019-02-05T18:22:25.391Z,47.27
2019-02-05T18:24:52.312Z,45.80
2019-02-05T18:27:18.895Z,43.95
2019-02-05T18:29:45.968Z,42.67
2019-02-05T18:32:13.263Z,47.58
2019-02-05T18:34:39.853Z,51.73
2019-02-05T18:37:06.428Z,46.90
2019-02-05T18:39:33.071Z,44.83
2019-02-05T18:41:59.664Z,41.45
2019-02-05T18:44:26.251Z,46.98
2019-02-05T18:46:52.910Z,47.65
2019-02-05T18:49:19.495Z,48.58
2019-02-05T18:51:48.236Z,50.73
2019-02-05T18:54:14.892Z,48.35
2019-02-05T18:56:41.467Z,47.35
2019-02-05T18:59:08.054Z,48.25
2019-02-05T19:01:34.673Z,46.83
2019-02-05T19:04:01.370Z,46.92
2019-02-05T19:06:27.945Z,44.30
2019-02-05T19:08:54.768Z,46.02
2019-02-05T19:11:21.352Z,50.95
2019-02-05T19:13:47.946Z,47.73
2019-02-05T19:16:14.606Z,44.25
2019-02-05T19:18:41.183Z,46.98
2019-02-05T19:21:07.781Z,49.30
2019-02-05T19:23:34.608Z,49.58
2019-02-05T19:26:01.194Z,50.65
2019-02-05T19:28:27.883Z,51.28
2019-02-05T19:30:54.517Z,54.05
2019-02-05T19:33:27.202Z,45.38
2019-02-05T19:35:49.735Z,52.35
